Terminal Aerodrome Forecast
Issued by NWS Tuscon, AZ

Home | Current Version | Previous Version | Text Only | Print | Product List | Glossary On
Versions: 1 2 3 4 5 6 7 8 9 10 11 12 13
000
FTUS45 KTWC 232338
TAFDUG
TAF
KDUG 232338Z 2400/2424 24025G35KT P6SM SCT050
     FM240600 22020G30KT P6SM VCSH SCT030 BKN050
     FM241100 26015G25KT P6SM VCSH SCT030 OVC050
     FM241500 27014G22KT P6SM FEW035 BKN060
     FM242000 29014KT P6SM SCT060=

USA.gov is the U.S. government's official web portal to all federal, state and local government web resources and services.